Pagina principale
METAR-TAF:

METAR-TAF

Aeroporti :

Amman, Giordania

latitudine: 31-59N, longitudine: 035-59E, altezza: 767 m

Osservazione

Il bollettino è stato emesso 39 minuti fa, alle 11:15 UTC
Vento 10 kt da nord
Temperature 26°C
Umidità 39%
Pressione 1015 hPa
Visibilità: 3000 m
Poco nuvoloso ad un'altezza di 3000 ft
Nubi sparse ad un'altezza di 20000 ft
polvere diffusa

METAR: OJAM 171115Z 35010KT 3000 DU FEW030 SCT200 26/11 Q1015 NOSIG

Ora: 14:54 (11:54 UTC)

Previsione

Il bollettino è stato emesso 1 ora e 44 minuti fa, alle 10:10 UTC
Previsione valida dal 17 alle 12 UTC al 18 alle 18 UTC
Vento 10 kt da nord-ovest
Visibilità: 5000 m
Poco nuvoloso ad un'altezza di 3500 ft
Nubi sparse ad un'altezza di 12000 ft
foschia
Temporaneamente
dal 17 alle 12 UTC al 17 alle 20 UTC
Visibilità: 4000 m
polvere diffusa

TAF: OJAM 171010Z 1712/1818 32010KT 5000 HZ FEW035 SCT120 TEMPO 1712/1720 4000 DU

Osservazioni e previsioni meteorologiche di più di 4000 aeroporti (messaggi METAR e TAF).

Le stazioni disponibili sono rappresentate dai dischi gialli e rossi sulla carta.

Puntare il mouse per vedere il nome della stazione.

Clicca sopra per visualizzare le osservazioni e previsioni meteorologiche.

Per cambiare la mappa : fare clic sui pulsanti verdi con una croce nera per ingrandire, il pulsante verde con un trattino per diminuire, o sulla freccia verde per le mappe adiacenti.


METAR-TAF: